Knoxville, Tennessee
Current Conditions -  °F | °C
As of 3:53 PM on Saturday 25 Oct 2014 (Local Time) from KTYS Reporting Station
Scattered Clouds Scattered Clouds  
Wind Chill: 21°   Ceiling: Unl
Heat Index: 21°   Visibility: 10mi
Dew Point:   Wind: 5mph
Humidity: 47%   Direction: 280°W
Pressure: 30.02"   Gusts: NA
Location:  35.96°N, 83.92°W
Report Text: KTYS 251953Z 28004KT 10SM SCT050 SCT250 21/09 A3002 RMK AO2 SLP162 T02060089
Loading
Personal Weather Stations






























Interactive Weather Map
Tropical Storm Tracking
New forecast layout! Learn more

10-Day Weather Forecast

Advertisements
Track Severe Weather on mobile